Terminal Aerodrome Forecast
Issued by NWS

Home | Current Version | Previous Version | Text Only | Print | Product List | Glossary Off
Versions: 1 2 3 4 5 6 7 8 9 10 11 12 13 14 15 16 17 18 19 20 21 22 23
000 FTUS41 KGYX 041858 AAA TAFMHT TAF AMD KMHT 041858Z 0419/0518 VRB06KT P6SM BKN025 OVC050 FM042000 06007KT 4SM -RA BR OVC007 FM050300 01010KT 5SM -RA OVC007 FM050400 01010KT 5SM BR OVC007 PROB30 0504/0510 4SM -DZ BR OVC003 FM051200 02012KT 6SM BR OVC007=

USA.gov is the U.S. government's official web portal to all federal, state and local government web resources and services.